Terminal Aerodrome Forecast
Issued by NWS

Home | Current Version | Previous Version | Text Only | Print | Product List | Glossary On
Versions: 1 2 3 4 5 6 7 8 9 10 11 12 13 14 15 16 17 18 19 20 21 22 23 24 25 26 27
000
FTUS44 KHGX 290217 AAA
TAFUTS
TAF AMD
KUTS 290217Z 2902/2924 VRB05KT P6SM VCSH BKN035 BKN090
      TEMPO 2902/2904 VRB25G35KT 4SM TSRA BKN025CB
     FM290600 VRB05KT P6SM VCSH SCT015 BKN025
     FM291800 VRB05KT P6SM VCTS SCT025 BKN050CB=

USA.gov is the U.S. government's official web portal to all federal, state and local government web resources and services.